createdAt,value
2023-07-29T00:00:22.924Z,23.54
2023-07-29T00:02:50.432Z,23.47
2023-07-29T00:05:17.774Z,23.29
2023-07-29T00:07:46.074Z,23.23
2023-07-29T00:10:13.520Z,23.19
2023-07-29T00:12:43.856Z,23.05
2023-07-29T00:15:11.429Z,22.78
2023-07-29T00:17:39.459Z,22.90
2023-07-29T00:20:12.825Z,22.81
2023-07-29T00:22:42.615Z,22.74
2023-07-29T00:25:09.917Z,22.69
2023-07-29T00:27:43.553Z,22.45
2023-07-29T00:30:14.217Z,22.56
2023-07-29T00:32:44.582Z,22.35
2023-07-29T00:35:14.520Z,22.33
2023-07-29T00:37:43.902Z,22.39
2023-07-29T00:40:26.256Z,22.58
2023-07-29T00:42:54.377Z,22.33
2023-07-29T00:45:21.904Z,22.44
2023-07-29T00:47:49.384Z,22.58
2023-07-29T00:50:19.578Z,22.24
2023-07-29T00:52:47.773Z,22.28
2023-07-29T00:55:15.115Z,22.42
2023-07-29T00:57:59.996Z,22.48
2023-07-29T01:00:31.443Z,22.42
2023-07-29T01:02:58.805Z,22.37
2023-07-29T01:05:34.337Z,22.24
2023-07-29T01:08:13.558Z,22.30
2023-07-29T01:11:08.108Z,22.39
2023-07-29T01:13:47.443Z,22.18
2023-07-29T01:16:25.371Z,22.40
2023-07-29T01:18:57.238Z,22.45
2023-07-29T01:21:28.697Z,22.15
2023-07-29T01:24:04.697Z,22.22
2023-07-29T01:26:35.594Z,22.06
2023-07-29T01:29:07.157Z,22.56
2023-07-29T01:31:44.849Z,22.88
2023-07-29T01:34:26.847Z,22.93
2023-07-29T01:36:56.122Z,22.87
2023-07-29T01:39:25.509Z,22.74
2023-07-29T01:41:54.828Z,22.64
2023-07-29T01:44:22.534Z,22.61
2023-07-29T01:46:54.976Z,22.58
2023-07-29T01:49:28.292Z,22.62
2023-07-29T01:51:55.914Z,22.44
2023-07-29T01:54:28.484Z,22.54
2023-07-29T01:56:55.696Z,22.30
2023-07-29T01:59:25.870Z,22.06
2023-07-29T02:01:53.460Z,21.99
2023-07-29T02:04:20.765Z,21.64
2023-07-29T02:06:50.450Z,21.65
2023-07-29T02:09:17.859Z,21.59
2023-07-29T02:11:45.092Z,21.70
2023-07-29T02:14:12.439Z,21.76
2023-07-29T02:16:43.033Z,21.71
2023-07-29T02:19:30.184Z,21.48
2023-07-29T02:21:57.384Z,21.41
2023-07-29T02:24:25.135Z,21.53
2023-07-29T02:26:55.576Z,21.42
2023-07-29T02:29:24.683Z,21.48
2023-07-29T02:31:55.109Z,21.70
2023-07-29T02:34:36.828Z,21.70
2023-07-29T02:37:08.844Z,21.66
2023-07-29T02:39:38.936Z,21.68
2023-07-29T02:42:09.923Z,21.77
2023-07-29T02:44:39.526Z,21.64
2023-07-29T02:47:09.470Z,21.67
2023-07-29T02:49:39.687Z,21.52
2023-07-29T02:52:19.026Z,21.57
2023-07-29T02:54:48.780Z,21.63
2023-07-29T02:57:23.269Z,21.62
2023-07-29T02:59:52.443Z,21.68
2023-07-29T03:02:19.694Z,21.62
2023-07-29T03:04:49.831Z,21.80
2023-07-29T03:07:17.869Z,21.73
2023-07-29T03:09:46.675Z,21.67
2023-07-29T03:12:18.260Z,21.72
2023-07-29T03:14:51.793Z,21.81
2023-07-29T03:17:26.571Z,22.01
2023-07-29T03:19:53.726Z,21.74
2023-07-29T03:22:23.664Z,21.92
2023-07-29T03:24:50.907Z,21.71
2023-07-29T03:27:18.327Z,21.57
2023-07-29T03:29:46.305Z,21.65
2023-07-29T03:32:13.708Z,21.35
2023-07-29T03:34:41.796Z,21.66
2023-07-29T03:37:09.633Z,21.74
2023-07-29T03:39:36.931Z,21.77
2023-07-29T03:42:04.914Z,21.75
2023-07-29T03:44:33.072Z,21.65
2023-07-29T03:47:00.781Z,21.90
2023-07-29T03:49:28.435Z,22.15
2023-07-29T03:51:55.808Z,22.26
2023-07-29T03:54:23.207Z,22.29
2023-07-29T03:56:50.369Z,22.12
2023-07-29T03:59:18.696Z,22.25
2023-07-29T04:01:46.669Z,22.47
2023-07-29T04:04:14.579Z,22.22
2023-07-29T04:06:42.562Z,22.09
2023-07-29T04:09:10.454Z,22.00
2023-07-29T04:11:38.586Z,21.97
2023-07-29T04:14:06.450Z,21.70
2023-07-29T04:16:33.710Z,22.06
2023-07-29T04:19:01.429Z,22.05
2023-07-29T04:21:29.361Z,21.94
2023-07-29T04:24:00.701Z,21.91
2023-07-29T04:26:27.896Z,21.83
2023-07-29T04:28:55.247Z,21.86
2023-07-29T04:31:23.361Z,21.82
2023-07-29T04:33:51.966Z,21.73
2023-07-29T04:36:19.785Z,21.84
2023-07-29T04:38:47.125Z,21.83
2023-07-29T04:41:15.629Z,21.93
2023-07-29T04:43:42.998Z,22.03
2023-07-29T04:46:10.305Z,21.85
2023-07-29T04:48:37.944Z,22.17
2023-07-29T04:51:05.159Z,22.37
2023-07-29T04:53:32.447Z,22.61
2023-07-29T04:55:59.841Z,22.57
2023-07-29T04:58:28.028Z,22.44
2023-07-29T05:00:55.537Z,22.56
2023-07-29T05:03:23.309Z,22.41
2023-07-29T05:05:50.495Z,22.67
2023-07-29T05:08:19.416Z,22.87
2023-07-29T05:10:51.281Z,22.77
2023-07-29T05:13:20.283Z,22.56
2023-07-29T05:15:52.345Z,22.58
2023-07-29T05:18:20.615Z,22.34
2023-07-29T05:20:48.832Z,22.32
2023-07-29T05:23:16.117Z,22.49
2023-07-29T05:25:43.670Z,22.48
2023-07-29T05:28:11.014Z,22.86
2023-07-29T05:30:41.408Z,22.95
2023-07-29T05:33:09.987Z,23.18
2023-07-29T05:35:39.000Z,23.30
2023-07-29T05:38:09.523Z,23.18
2023-07-29T05:40:36.758Z,23.38
2023-07-29T05:43:04.465Z,23.32
2023-07-29T05:45:32.449Z,23.31
2023-07-29T05:47:59.735Z,23.33
2023-07-29T05:50:27.034Z,23.34
2023-07-29T05:52:56.845Z,23.37
2023-07-29T05:55:24.110Z,23.30
2023-07-29T05:57:51.412Z,22.92
2023-07-29T06:00:19.162Z,22.95
2023-07-29T06:02:46.780Z,22.96
2023-07-29T06:05:17.524Z,23.20
2023-07-29T06:07:46.307Z,23.15
2023-07-29T06:10:18.834Z,23.21
2023-07-29T06:12:49.945Z,23.14
2023-07-29T06:15:17.392Z,23.38
2023-07-29T06:17:44.597Z,23.34
2023-07-29T06:20:12.875Z,23.47
2023-07-29T06:22:40.212Z,23.41
2023-07-29T06:25:07.740Z,23.65
2023-07-29T06:27:36.120Z,23.50
2023-07-29T06:30:03.667Z,23.50
2023-07-29T06:32:31.547Z,23.45
2023-07-29T06:34:58.688Z,23.02
2023-07-29T06:37:28.848Z,23.40
2023-07-29T06:39:56.068Z,23.63
2023-07-29T06:42:23.562Z,23.63
2023-07-29T06:44:50.949Z,23.74
2023-07-29T06:47:18.233Z,23.52
2023-07-29T06:49:47.184Z,23.42
2023-07-29T06:52:14.530Z,23.13
2023-07-29T06:54:42.491Z,23.16
2023-07-29T06:57:09.747Z,23.24
2023-07-29T06:59:37.063Z,23.37
2023-07-29T07:02:04.891Z,23.45
2023-07-29T07:04:32.283Z,23.42
2023-07-29T07:06:59.892Z,23.49
2023-07-29T07:09:27.081Z,23.55
2023-07-29T07:11:58.443Z,23.70
2023-07-29T07:14:25.817Z,23.97
2023-07-29T07:16:53.053Z,23.97
2023-07-29T07:19:20.559Z,23.85
2023-07-29T07:21:47.740Z,23.93
2023-07-29T07:24:14.936Z,24.02
2023-07-29T07:26:42.075Z,24.01
2023-07-29T07:29:09.245Z,24.06
2023-07-29T07:31:37.651Z,24.00
2023-07-29T07:34:05.414Z,24.02
2023-07-29T07:36:35.760Z,24.04
2023-07-29T07:39:03.196Z,24.30
2023-07-29T07:41:30.309Z,24.14
2023-07-29T07:43:58.175Z,24.18
2023-07-29T07:46:25.458Z,24.31
2023-07-29T07:48:52.731Z,24.21
2023-07-29T07:51:19.920Z,24.39
2023-07-29T07:53:47.429Z,24.36
2023-07-29T07:56:14.964Z,24.52
2023-07-29T07:58:42.567Z,24.72
2023-07-29T08:01:10.575Z,24.68
2023-07-29T08:03:37.888Z,24.61
2023-07-29T08:06:08.408Z,24.44
2023-07-29T08:08:38.377Z,24.50
2023-07-29T08:11:05.561Z,24.55
2023-07-29T08:13:33.559Z,24.57
2023-07-29T08:16:00.813Z,24.76
2023-07-29T08:18:28.014Z,25.03
2023-07-29T08:21:00.340Z,25.00
2023-07-29T08:23:27.801Z,25.02
2023-07-29T08:25:57.611Z,25.17
2023-07-29T08:28:25.718Z,25.04
2023-07-29T08:30:53.079Z,25.10
2023-07-29T08:33:20.362Z,25.21
2023-07-29T08:35:47.743Z,25.30
2023-07-29T08:38:15.207Z,25.42
2023-07-29T08:40:58.645Z,25.67
2023-07-29T08:43:42.273Z,25.70
2023-07-29T08:46:10.436Z,25.92
2023-07-29T08:48:45.149Z,25.96
2023-07-29T08:51:13.606Z,26.02
2023-07-29T08:53:41.011Z,26.08
2023-07-29T08:56:09.323Z,26.15
2023-07-29T08:58:37.744Z,26.11
2023-07-29T09:01:05.124Z,25.91
2023-07-29T09:03:32.480Z,25.93
2023-07-29T09:06:00.258Z,26.05
2023-07-29T09:08:31.145Z,26.16
2023-07-29T09:11:00.790Z,26.17
2023-07-29T09:13:28.195Z,26.30
2023-07-29T09:15:57.530Z,26.18
2023-07-29T09:18:28.048Z,26.12
2023-07-29T09:20:57.865Z,26.24
2023-07-29T09:23:27.680Z,26.18
2023-07-29T09:26:03.238Z,26.04
2023-07-29T09:28:36.183Z,25.81
2023-07-29T09:31:04.551Z,26.03
2023-07-29T09:33:39.020Z,26.30
2023-07-29T09:36:15.455Z,26.36
2023-07-29T09:38:42.823Z,26.61
2023-07-29T09:41:15.499Z,26.59
2023-07-29T09:43:43.222Z,26.71
2023-07-29T09:46:10.489Z,26.93
2023-07-29T09:48:38.898Z,26.86
2023-07-29T09:51:14.270Z,27.05
2023-07-29T09:53:47.548Z,27.01
2023-07-29T09:56:16.779Z,26.93
2023-07-29T09:58:47.378Z,26.88
2023-07-29T10:01:15.831Z,26.91
2023-07-29T10:03:45.488Z,26.94
2023-07-29T10:06:15.989Z,26.92
2023-07-29T10:08:44.394Z,26.98
2023-07-29T10:11:12.704Z,26.82
2023-07-29T10:13:40.294Z,27.07
2023-07-29T10:16:07.970Z,26.91
2023-07-29T10:18:35.855Z,26.86
2023-07-29T10:21:04.466Z,26.85
2023-07-29T10:23:43.270Z,26.51
2023-07-29T10:26:12.343Z,26.66
2023-07-29T10:28:42.770Z,26.82
2023-07-29T10:31:10.470Z,26.97
2023-07-29T10:33:38.941Z,26.99
2023-07-29T10:36:07.083Z,26.95
2023-07-29T10:38:34.502Z,26.96
2023-07-29T10:41:02.125Z,26.80
2023-07-29T10:43:39.865Z,26.66
2023-07-29T10:46:18.958Z,26.78
2023-07-29T10:48:57.944Z,26.88
2023-07-29T10:51:38.960Z,26.85
2023-07-29T10:54:18.240Z,26.94
2023-07-29T10:56:50.747Z,27.13
2023-07-29T10:59:18.403Z,27.27
2023-07-29T11:01:57.727Z,27.35
2023-07-29T11:04:27.671Z,27.27
2023-07-29T11:07:09.951Z,27.14
2023-07-29T11:09:56.781Z,26.77
2023-07-29T11:12:49.011Z,26.84
2023-07-29T11:15:19.433Z,26.76
2023-07-29T11:17:55.644Z,26.88
2023-07-29T11:20:25.578Z,26.76
2023-07-29T11:22:55.474Z,26.99
2023-07-29T11:25:24.710Z,27.01
2023-07-29T11:27:56.982Z,27.24
2023-07-29T11:30:35.117Z,27.24
2023-07-29T11:33:02.728Z,27.26
2023-07-29T11:35:29.956Z,27.37
2023-07-29T11:38:00.132Z,27.39
2023-07-29T11:40:27.337Z,27.46
2023-07-29T11:42:55.619Z,27.52
2023-07-29T11:45:32.491Z,27.59
2023-07-29T11:48:08.125Z,27.59
2023-07-29T11:50:40.882Z,27.74
2023-07-29T11:53:10.958Z,27.66
2023-07-29T11:55:38.343Z,27.74
2023-07-29T11:58:06.201Z,27.89
2023-07-29T12:00:34.210Z,27.82
2023-07-29T12:03:01.768Z,27.92
2023-07-29T12:05:29.399Z,27.88
2023-07-29T12:07:56.779Z,27.80
2023-07-29T12:10:24.348Z,27.54
2023-07-29T12:12:52.714Z,27.59
2023-07-29T12:15:30.755Z,27.78
2023-07-29T12:17:59.353Z,27.78
2023-07-29T12:20:28.502Z,27.63
2023-07-29T12:22:57.830Z,27.50
2023-07-29T12:25:25.788Z,27.33
2023-07-29T12:27:53.154Z,27.38
2023-07-29T12:30:24.199Z,27.41
2023-07-29T12:32:52.180Z,27.49
2023-07-29T12:35:19.614Z,27.41
2023-07-29T12:37:47.006Z,27.54
2023-07-29T12:40:25.246Z,27.70
2023-07-29T12:42:53.253Z,27.62
2023-07-29T12:45:20.939Z,27.70
2023-07-29T12:47:48.186Z,27.51
2023-07-29T12:50:15.476Z,27.51
2023-07-29T12:52:42.808Z,27.53
2023-07-29T12:55:14.242Z,27.57
2023-07-29T12:57:44.008Z,27.82
2023-07-29T13:00:12.088Z,27.64
2023-07-29T13:02:39.489Z,27.49
2023-07-29T13:05:07.963Z,27.46
2023-07-29T13:07:35.963Z,27.20
2023-07-29T13:10:03.133Z,27.18
2023-07-29T13:12:30.902Z,27.05
2023-07-29T13:14:58.110Z,27.12
2023-07-29T13:17:26.011Z,27.06
2023-07-29T13:19:55.822Z,27.11
2023-07-29T13:22:23.222Z,27.10
2023-07-29T13:24:50.676Z,27.23
2023-07-29T13:27:19.148Z,27.35
2023-07-29T13:29:50.157Z,27.27
2023-07-29T13:32:17.467Z,27.06
2023-07-29T13:34:49.759Z,27.00
2023-07-29T13:37:16.952Z,26.83
2023-07-29T13:39:47.434Z,26.74
2023-07-29T13:42:20.519Z,26.71
2023-07-29T13:44:49.948Z,26.63
2023-07-29T13:47:17.250Z,26.67
2023-07-29T13:49:44.503Z,26.64
2023-07-29T13:52:12.869Z,26.68
2023-07-29T13:54:40.869Z,26.75
2023-07-29T13:57:08.585Z,26.75
2023-07-29T13:59:37.696Z,26.85
2023-07-29T14:02:08.185Z,27.05
2023-07-29T14:04:37.685Z,27.00
2023-07-29T14:07:16.791Z,27.13
2023-07-29T14:09:44.435Z,27.14
2023-07-29T14:12:16.976Z,27.21
2023-07-29T14:14:44.411Z,27.26
2023-07-29T14:17:11.882Z,27.31
2023-07-29T14:19:39.553Z,27.35
2023-07-29T14:22:07.619Z,27.34
2023-07-29T14:24:34.915Z,27.27
2023-07-29T14:27:02.069Z,27.15
2023-07-29T14:29:29.461Z,27.30
2023-07-29T14:31:57.721Z,27.30
2023-07-29T14:34:26.192Z,27.32
2023-07-29T14:36:53.495Z,27.15
2023-07-29T14:39:20.835Z,27.24
2023-07-29T14:41:50.357Z,27.42
2023-07-29T14:44:20.965Z,27.13
2023-07-29T14:46:52.203Z,27.37
2023-07-29T14:49:23.492Z,27.31
2023-07-29T14:52:17.322Z,27.57
2023-07-29T14:54:47.753Z,27.64
2023-07-29T14:57:17.342Z,27.75
2023-07-29T14:59:45.440Z,27.90
2023-07-29T15:02:12.774Z,27.80
2023-07-29T15:04:46.693Z,27.60
2023-07-29T15:07:15.794Z,27.73
2023-07-29T15:09:43.200Z,27.81
2023-07-29T15:12:10.573Z,27.81
2023-07-29T15:14:38.181Z,27.72
2023-07-29T15:17:05.934Z,27.51
2023-07-29T15:19:33.355Z,27.59
2023-07-29T15:22:01.159Z,27.56
2023-07-29T15:24:31.933Z,27.33
2023-07-29T15:27:01.683Z,27.25
2023-07-29T15:29:28.928Z,27.38
2023-07-29T15:31:57.092Z,27.34
2023-07-29T15:34:26.685Z,27.41
2023-07-29T15:36:54.304Z,27.34
2023-07-29T15:39:21.411Z,27.46
2023-07-29T15:41:48.585Z,27.42
2023-07-29T15:44:16.328Z,27.43
2023-07-29T15:46:44.965Z,27.08
2023-07-29T15:49:12.640Z,27.16
2023-07-29T15:51:39.916Z,27.15
2023-07-29T15:54:07.498Z,27.20
2023-07-29T15:56:38.305Z,27.23
2023-07-29T15:59:05.980Z,27.24
2023-07-29T16:01:33.458Z,27.15
2023-07-29T16:04:01.267Z,27.18
2023-07-29T16:06:29.488Z,27.23
2023-07-29T16:08:57.160Z,27.26
2023-07-29T16:11:24.706Z,27.20
2023-07-29T16:13:51.865Z,27.25
2023-07-29T16:16:19.237Z,27.22
2023-07-29T16:18:47.469Z,27.15
2023-07-29T16:21:14.756Z,27.05
2023-07-29T16:23:42.503Z,27.00
2023-07-29T16:26:09.686Z,27.01
2023-07-29T16:28:36.965Z,26.97
2023-07-29T16:31:04.616Z,26.94
2023-07-29T16:33:31.944Z,26.83
2023-07-29T16:35:59.343Z,26.87
2023-07-29T16:38:29.500Z,26.84
2023-07-29T16:41:10.784Z,26.79
2023-07-29T16:43:44.448Z,26.69
2023-07-29T16:46:13.077Z,26.71
2023-07-29T16:48:40.357Z,26.82
2023-07-29T16:51:09.575Z,26.76
2023-07-29T16:53:36.828Z,26.87
2023-07-29T16:56:04.070Z,26.71
2023-07-29T16:58:31.275Z,26.74
2023-07-29T17:00:58.464Z,26.79
2023-07-29T17:03:26.246Z,26.83
2023-07-29T17:05:56.708Z,26.70
2023-07-29T17:08:23.818Z,26.73
2023-07-29T17:10:51.073Z,26.82
2023-07-29T17:13:18.990Z,26.72
2023-07-29T17:15:46.191Z,26.59
2023-07-29T17:18:15.994Z,26.54
2023-07-29T17:20:46.983Z,26.52
2023-07-29T17:23:21.515Z,26.58
2023-07-29T17:25:58.396Z,26.48
2023-07-29T17:28:25.734Z,25.96
2023-07-29T17:30:59.781Z,26.25
2023-07-29T17:33:46.024Z,26.28
2023-07-29T17:36:21.371Z,26.05
2023-07-29T17:38:50.684Z,26.14
2023-07-29T17:41:19.325Z,26.10
2023-07-29T17:43:54.510Z,26.02
2023-07-29T17:46:56.532Z,25.91
2023-07-29T17:49:30.704Z,25.76
2023-07-29T17:52:08.294Z,25.75
2023-07-29T17:54:41.223Z,25.83
2023-07-29T17:57:09.297Z,25.99
2023-07-29T17:59:44.559Z,25.67
2023-07-29T18:02:18.157Z,26.25
2023-07-29T18:04:50.710Z,25.85
2023-07-29T18:07:21.228Z,26.10
2023-07-29T18:09:48.638Z,25.73
2023-07-29T18:12:26.971Z,25.83
2023-07-29T18:14:54.493Z,26.10
2023-07-29T18:17:22.603Z,25.57
2023-07-29T18:19:58.473Z,25.68
2023-07-29T18:22:36.740Z,26.29
2023-07-29T18:25:08.628Z,25.89
2023-07-29T18:27:36.700Z,26.10
2023-07-29T18:30:07.329Z,25.64
2023-07-29T18:32:41.125Z,26.03
2023-07-29T18:35:21.354Z,25.79
2023-07-29T18:37:57.032Z,25.81
2023-07-29T18:40:24.547Z,26.00
2023-07-29T18:46:15.504Z,25.63
2023-07-29T18:48:50.264Z,25.60
2023-07-29T18:51:26.401Z,25.25
2023-07-29T18:54:16.828Z,25.45
2023-07-29T18:57:10.119Z,25.07
2023-07-29T18:59:42.278Z,24.97
2023-07-29T19:03:03.106Z,24.98
2023-07-29T19:05:34.482Z,24.52
2023-07-29T19:08:03.134Z,25.12
2023-07-29T19:10:34.135Z,24.52
2023-07-29T19:13:01.575Z,24.98
2023-07-29T19:15:43.581Z,24.89
2023-07-29T19:18:16.651Z,24.97
2023-07-29T19:20:56.838Z,25.13
2023-07-29T19:23:24.980Z,24.18
2023-07-29T19:25:58.226Z,24.51
2023-07-29T19:28:29.311Z,24.39
2023-07-29T19:31:04.182Z,24.46
2023-07-29T19:33:53.430Z,24.83
2023-07-29T19:36:39.812Z,24.28
2023-07-29T19:39:23.731Z,24.02
2023-07-29T19:42:01.924Z,24.45
2023-07-29T19:44:29.846Z,24.92
2023-07-29T19:46:57.578Z,24.88
2023-07-29T19:49:27.971Z,24.78
2023-07-29T19:52:04.980Z,24.53
2023-07-29T19:54:39.726Z,24.44
2023-07-29T19:57:08.426Z,24.73
2023-07-29T19:59:47.867Z,24.54
2023-07-29T20:02:16.693Z,24.74
2023-07-29T20:04:50.184Z,24.78
2023-07-29T20:07:18.036Z,24.81
2023-07-29T20:09:45.411Z,24.88
2023-07-29T20:12:15.372Z,24.88
2023-07-29T20:14:42.753Z,24.68
2023-07-29T20:17:15.977Z,24.72
2023-07-29T20:19:43.388Z,24.66
2023-07-29T20:22:12.829Z,24.64
2023-07-29T20:24:41.621Z,24.56
2023-07-29T20:27:09.387Z,24.59
2023-07-29T20:29:37.243Z,24.46
2023-07-29T20:32:05.905Z,24.41
2023-07-29T20:34:35.705Z,24.67
2023-07-29T20:37:03.516Z,24.60
2023-07-29T20:39:30.836Z,24.74
2023-07-29T20:41:58.031Z,24.76
2023-07-29T20:44:29.196Z,24.99
2023-07-29T20:46:56.583Z,24.88
2023-07-29T20:49:24.467Z,24.52
2023-07-29T20:51:51.756Z,24.39
2023-07-29T20:54:23.214Z,24.25
2023-07-29T20:56:59.082Z,24.09
2023-07-29T20:59:28.546Z,24.18
2023-07-29T21:01:57.089Z,24.08
2023-07-29T21:04:25.050Z,24.14
2023-07-29T21:07:38.007Z,24.29
2023-07-29T21:10:06.747Z,24.30
2023-07-29T21:12:35.210Z,24.17
2023-07-29T21:15:08.071Z,24.04
2023-07-29T21:17:55.182Z,23.79
2023-07-29T21:20:33.467Z,23.89
2023-07-29T21:23:00.637Z,23.85
2023-07-29T21:25:34.976Z,23.80
2023-07-29T21:28:03.839Z,23.88
2023-07-29T21:30:51.226Z,23.81
2023-07-29T21:33:22.371Z,23.29
2023-07-29T21:35:53.255Z,23.16
2023-07-29T21:38:29.796Z,23.10
2023-07-29T21:41:01.860Z,23.62
2023-07-29T21:43:31.906Z,23.11
2023-07-29T21:46:03.026Z,23.24
2023-07-29T21:48:30.628Z,23.55
2023-07-29T21:50:58.096Z,23.39
2023-07-29T21:53:25.354Z,23.77
2023-07-29T21:55:53.216Z,23.76
2023-07-29T21:58:20.682Z,23.70
2023-07-29T22:00:54.728Z,23.65
2023-07-29T22:03:22.062Z,23.77
2023-07-29T22:05:49.421Z,23.76
2023-07-29T22:08:18.182Z,23.62
2023-07-29T22:10:45.467Z,23.70
2023-07-29T22:13:12.909Z,23.79
2023-07-29T22:15:42.553Z,24.03
2023-07-29T22:18:09.715Z,24.28
2023-07-29T22:20:37.081Z,24.20
2023-07-29T22:23:10.727Z,24.17
2023-07-29T22:25:38.031Z,24.30
2023-07-29T22:28:08.743Z,24.36
2023-07-29T22:30:38.229Z,24.26
2023-07-29T22:33:05.561Z,24.19
2023-07-29T22:35:35.870Z,24.24
2023-07-29T22:38:05.674Z,23.92
2023-07-29T22:40:32.937Z,23.83
2023-07-29T22:43:00.103Z,23.75
2023-07-29T22:45:27.718Z,23.64
2023-07-29T22:47:55.548Z,23.72
2023-07-29T22:50:23.284Z,23.79
2023-07-29T22:52:50.850Z,23.85
2023-07-29T22:55:18.052Z,23.85
2023-07-29T22:57:45.251Z,23.79
2023-07-29T23:00:14.573Z,23.66
2023-07-29T23:02:43.567Z,23.80
2023-07-29T23:05:11.121Z,23.91
2023-07-29T23:07:40.427Z,24.34
2023-07-29T23:10:09.171Z,24.47
2023-07-29T23:12:36.864Z,24.32
2023-07-29T23:15:04.517Z,24.06
2023-07-29T23:17:32.108Z,24.07
2023-07-29T23:19:59.314Z,23.81
2023-07-29T23:22:26.601Z,23.68
2023-07-29T23:24:55.001Z,23.64
2023-07-29T23:27:22.736Z,23.66
2023-07-29T23:29:50.230Z,23.31
2023-07-29T23:32:17.734Z,23.49
2023-07-29T23:34:45.061Z,23.28
2023-07-29T23:37:13.230Z,23.27
2023-07-29T23:39:45.536Z,23.27
2023-07-29T23:42:13.580Z,22.96
2023-07-29T23:44:40.888Z,23.07
2023-07-29T23:47:08.072Z,23.09
2023-07-29T23:49:35.363Z,23.08
2023-07-29T23:52:03.968Z,22.85
2023-07-29T23:54:31.185Z,23.00
2023-07-29T23:56:58.291Z,22.96
2023-07-29T23:59:28.935Z,22.96
